Aérodrome :
LOGIN :

S'inscrire | Disclaimer

   EN    FR    IT 

 










Légende :    VFR   VFR Marginal   IFR   IFR Intensif   IFR Très Intensif
Visi : 
Plafond : 
>= 8 km
>= 3000ft
5 à 8 km
1000 à 3000 ft
1500m à 5 km
500 à 1000 ft
800 à 1500m
200 à 500 ft
< 800m
< 200 ft
Symboles :   Orages  Brouillard  Fortes neiges  Fortes précipitations  Vent > 20 kt
SIGMETs :   Divers  Orages  Givrage  Turbulence  Onde Orograph.  Cendres Volcan.






- Altitude de l'aérodrome : 909 ft
- Code IATA : KSF


EDVK - Kassel Calden

DERNIER METAR :
  • 041550Z 34004KT 300V030 9999 FEW032 20/14 Q1013 RERA

METARs EXPIRÉS :
  • 041520Z 06004KT 330V100 9999 VCSH FEW020 SCT045TCU 20/15 Q1013
  • 041450Z VRB01KT 9999 VCSH FEW040TCU 19/16 Q1013
  • 041420Z 35003KT 300V040 9999 VCSH SCT040CB 16/15 Q1013
  • 041350Z 36004KT 320V050 9999 VCSH SCT034CB 16/14 Q1013
  • 041320Z 01006KT 330V040 9999 -RA BKN034CB 16/14 Q1013
  • 041250Z 25003KT 210V290 9999 VCSH FEW020 SCT035TCU 19/13 Q1013

TAF TAF EDVK
Valide du 04 à 15h jusqu'au 05 à 00h UTC


041400Z 0415/0424 02004KT 9999 SCT030
TEMPO 0415/0421 4000 SHRA BKN025CB
PROB30
TEMPO 0420/0424 0500 FG BKN001



MET'MAP, la Météo Aéronautique d'un coup d'oeil ! - Copyright ORBIFLY Décembre 2007 - Disclaimer

ORBIFLY MET'MAP TEAM :

Programmation & Développement : Alexandra Zaïnal
Sur une idée originale de : Baudouin d'Aumeries
Assistance à la programmation : Marc-Olivier Méhu
Soutien technique & logistique : Manuel Goepfert

Contact : metmap@orbifly.com




SOURCES & CREDITS :

   NOAA